createdAt,value
2023-08-15T00:00:28.247Z,4.10
2023-08-15T00:01:01.018Z,4.22
2023-08-15T00:01:32.469Z,4.05
2023-08-15T00:02:04.026Z,4.53
2023-08-15T00:02:35.445Z,4.82
2023-08-15T00:03:07.040Z,4.30
2023-08-15T00:03:38.544Z,5.13
2023-08-15T00:04:09.933Z,4.07
2023-08-15T00:04:41.356Z,4.32
2023-08-15T00:05:12.757Z,4.18
2023-08-15T00:05:44.191Z,4.70
2023-08-15T00:06:15.602Z,3.83
2023-08-15T00:06:46.984Z,4.65
2023-08-15T00:07:18.682Z,4.45
2023-08-15T00:07:50.363Z,4.25
2023-08-15T00:08:21.787Z,4.60
2023-08-15T00:08:53.188Z,4.40
2023-08-15T00:09:24.554Z,3.97
2023-08-15T00:09:55.936Z,4.32
2023-08-15T00:10:27.330Z,4.70
2023-08-15T00:10:58.771Z,3.95
2023-08-15T00:11:30.225Z,4.25
2023-08-15T00:12:01.790Z,5.25
2023-08-15T00:12:33.181Z,4.82
2023-08-15T00:13:04.665Z,4.97
2023-08-15T00:13:36.052Z,4.83
2023-08-15T00:14:07.499Z,4.53
2023-08-15T00:14:38.980Z,5.65
2023-08-15T00:15:10.601Z,5.30
2023-08-15T00:15:42.085Z,5.03
2023-08-15T00:16:13.598Z,5.55
2023-08-15T00:16:45.121Z,4.57
2023-08-15T00:17:16.600Z,4.68
2023-08-15T00:17:48.065Z,4.68
2023-08-15T00:18:19.510Z,4.65
2023-08-15T00:18:50.897Z,4.32
2023-08-15T00:19:22.346Z,4.85
2023-08-15T00:19:53.760Z,5.13
2023-08-15T00:20:25.159Z,5.55
2023-08-15T00:20:56.572Z,4.68
2023-08-15T00:21:27.987Z,4.82
2023-08-15T00:21:59.379Z,3.72
2023-08-15T00:22:30.811Z,4.72
2023-08-15T00:23:02.265Z,5.32
2023-08-15T00:23:33.776Z,4.03
2023-08-15T00:24:05.441Z,4.60
2023-08-15T00:24:36.906Z,3.92
2023-08-15T00:25:08.416Z,5.13
2023-08-15T00:25:39.837Z,4.78
2023-08-15T00:26:11.262Z,4.03
2023-08-15T00:26:42.677Z,4.15
2023-08-15T00:27:14.115Z,5.13
2023-08-15T00:27:45.479Z,4.80
2023-08-15T00:28:16.896Z,4.38
2023-08-15T00:28:48.319Z,4.60
2023-08-15T00:29:19.710Z,3.72
2023-08-15T00:29:51.086Z,4.70
2023-08-15T00:30:22.516Z,3.90
2023-08-15T00:30:54.047Z,4.43
2023-08-15T00:31:25.975Z,4.57
2023-08-15T00:31:57.456Z,4.70
2023-08-15T00:32:28.937Z,4.40
2023-08-15T00:33:00.658Z,4.38
2023-08-15T00:33:32.195Z,4.95
2023-08-15T00:34:03.716Z,3.90
2023-08-15T00:34:35.228Z,4.10
2023-08-15T00:35:07.024Z,4.82
2023-08-15T00:35:38.485Z,4.80
2023-08-15T00:36:10.084Z,4.13
2023-08-15T00:36:41.451Z,4.30
2023-08-15T00:37:13.027Z,5.30
2023-08-15T00:37:44.443Z,4.40
2023-08-15T00:38:15.868Z,4.30
2023-08-15T00:38:47.260Z,4.32
2023-08-15T00:39:18.641Z,4.55
2023-08-15T00:39:50.101Z,4.80
2023-08-15T00:40:21.518Z,4.68
2023-08-15T00:40:52.934Z,4.60
2023-08-15T00:41:24.312Z,4.50
2023-08-15T00:41:55.748Z,4.07
2023-08-15T00:42:27.320Z,4.30
2023-08-15T00:42:58.771Z,4.00
2023-08-15T00:43:30.151Z,4.53
2023-08-15T00:44:01.538Z,4.40
2023-08-15T00:44:32.977Z,4.88
2023-08-15T00:45:04.673Z,4.13
2023-08-15T00:45:38.429Z,5.30
2023-08-15T00:46:10.139Z,4.18
2023-08-15T00:46:41.632Z,4.63
2023-08-15T00:47:14.371Z,3.88
2023-08-15T00:47:45.849Z,5.32
2023-08-15T00:48:17.691Z,4.75
2023-08-15T00:48:49.541Z,4.00
2023-08-15T00:49:20.958Z,4.80
2023-08-15T00:49:53.205Z,4.28
2023-08-15T00:50:24.946Z,4.22
2023-08-15T00:50:57.130Z,4.55
2023-08-15T00:51:28.606Z,4.20
2023-08-15T00:52:00.073Z,5.17
2023-08-15T00:52:31.508Z,4.70
2023-08-15T00:53:03.982Z,5.40
2023-08-15T00:53:35.922Z,5.35
2023-08-15T00:54:07.711Z,4.53
2023-08-15T00:54:39.732Z,4.55
2023-08-15T00:55:11.292Z,4.50
2023-08-15T00:55:42.758Z,4.50
2023-08-15T00:56:15.276Z,4.13
2023-08-15T00:56:46.763Z,4.15
2023-08-15T00:57:18.694Z,5.05
2023-08-15T00:57:50.359Z,4.68
2023-08-15T00:58:21.842Z,4.00
2023-08-15T00:58:53.452Z,4.50
2023-08-15T00:59:24.944Z,4.53
2023-08-15T00:59:56.572Z,4.85
2023-08-15T01:00:28.381Z,5.32
2023-08-15T01:01:00.153Z,4.55
2023-08-15T01:01:32.352Z,4.80
2023-08-15T01:02:04.251Z,4.55
2023-08-15T01:02:36.021Z,4.70
2023-08-15T01:03:07.705Z,4.65
2023-08-15T01:03:39.464Z,4.05
2023-08-15T01:04:11.339Z,4.57
2023-08-15T01:04:42.840Z,4.45
2023-08-15T01:05:15.768Z,4.47
2023-08-15T01:05:48.077Z,4.45
2023-08-15T01:06:19.560Z,4.63
2023-08-15T01:06:51.241Z,4.22
2023-08-15T01:07:22.789Z,3.97
2023-08-15T01:07:54.491Z,4.78
2023-08-15T01:08:25.903Z,4.60
2023-08-15T01:08:57.701Z,5.07
2023-08-15T01:09:29.121Z,5.20
2023-08-15T01:10:00.588Z,4.40
2023-08-15T01:10:32.068Z,4.38
2023-08-15T01:11:03.571Z,3.93
2023-08-15T01:11:40.021Z,4.75
2023-08-15T01:12:17.330Z,4.10
2023-08-15T01:12:59.395Z,4.57
2023-08-15T01:13:30.802Z,5.53
2023-08-15T01:14:05.513Z,4.28
2023-08-15T01:14:46.955Z,4.47
2023-08-15T01:15:21.486Z,4.80
2023-08-15T01:15:53.275Z,4.38
2023-08-15T01:16:25.883Z,4.63
2023-08-15T01:16:57.995Z,4.65
2023-08-15T01:17:33.727Z,4.78
2023-08-15T01:18:14.037Z,5.03
2023-08-15T01:18:46.812Z,4.83
2023-08-15T01:19:39.392Z,4.32
2023-08-15T01:20:13.749Z,4.53
2023-08-15T01:20:46.368Z,4.68
2023-08-15T01:21:21.825Z,4.95
2023-08-15T01:21:55.275Z,4.63
2023-08-15T01:22:28.994Z,5.60
2023-08-15T01:23:05.504Z,5.72
2023-08-15T01:23:41.033Z,4.70
2023-08-15T01:24:12.469Z,5.15
2023-08-15T01:24:44.868Z,3.65
2023-08-15T01:25:16.353Z,4.95
2023-08-15T01:25:49.601Z,5.25
2023-08-15T01:26:21.082Z,4.93
2023-08-15T01:26:52.532Z,4.47
2023-08-15T01:27:23.928Z,5.15
2023-08-15T01:27:55.333Z,4.68
2023-08-15T01:28:26.726Z,5.40
2023-08-15T01:28:58.142Z,4.53
2023-08-15T01:29:29.588Z,4.72
2023-08-15T01:30:01.028Z,4.88
2023-08-15T01:30:32.475Z,4.78
2023-08-15T01:31:06.600Z,4.63
2023-08-15T01:31:44.319Z,4.80
2023-08-15T01:32:20.145Z,5.30
2023-08-15T01:32:59.827Z,4.60
2023-08-15T01:33:35.380Z,4.53
2023-08-15T01:34:21.983Z,4.35
2023-08-15T01:34:59.965Z,5.63
2023-08-15T01:35:34.115Z,4.68
2023-08-15T01:36:09.456Z,4.50
2023-08-15T01:36:44.132Z,5.05
2023-08-15T01:37:26.979Z,3.45
2023-08-15T01:38:18.635Z,4.90
2023-08-15T01:38:52.827Z,5.15
2023-08-15T01:39:30.799Z,4.93
2023-08-15T01:40:03.348Z,5.45
2023-08-15T01:40:36.247Z,4.10
2023-08-15T01:41:09.473Z,4.25
2023-08-15T01:41:42.129Z,4.35
2023-08-15T01:42:13.954Z,4.68
2023-08-15T01:42:45.806Z,5.28
2023-08-15T01:43:18.431Z,4.78
2023-08-15T01:43:50.091Z,4.93
2023-08-15T01:44:21.845Z,5.10
2023-08-15T01:44:55.010Z,4.20
2023-08-15T01:45:26.683Z,4.57
2023-08-15T01:45:58.521Z,4.57
2023-08-15T01:46:30.090Z,4.65
2023-08-15T01:47:01.806Z,4.22
2023-08-15T01:47:33.426Z,5.05
2023-08-15T01:48:05.142Z,5.13
2023-08-15T01:48:43.064Z,4.57
2023-08-15T01:49:14.759Z,4.60
2023-08-15T01:49:46.238Z,4.40
2023-08-15T01:50:17.623Z,4.13
2023-08-15T01:50:49.059Z,4.68
2023-08-15T01:51:20.491Z,4.20
2023-08-15T01:51:52.130Z,4.55
2023-08-15T01:52:23.576Z,4.68
2023-08-15T01:52:55.038Z,4.70
2023-08-15T01:53:26.424Z,4.88
2023-08-15T01:53:57.941Z,4.25
2023-08-15T01:54:29.612Z,4.30
2023-08-15T01:55:01.029Z,4.72
2023-08-15T01:55:32.404Z,4.95
2023-08-15T01:56:03.876Z,5.20
2023-08-15T01:56:35.338Z,4.30
2023-08-15T01:57:06.776Z,4.80
2023-08-15T01:57:38.196Z,4.25
2023-08-15T01:58:09.596Z,5.00
2023-08-15T01:58:41.084Z,4.80
2023-08-15T01:59:12.506Z,5.00
2023-08-15T01:59:44.063Z,4.60
2023-08-15T02:00:15.561Z,6.30
2023-08-15T02:00:46.929Z,4.68
2023-08-15T02:01:18.349Z,4.55
2023-08-15T02:01:49.872Z,4.78
2023-08-15T02:02:21.300Z,4.13
2023-08-15T02:02:52.789Z,5.13
2023-08-15T02:03:24.218Z,4.90
2023-08-15T02:03:55.686Z,4.70
2023-08-15T02:04:27.061Z,4.35
2023-08-15T02:04:58.441Z,4.63
2023-08-15T02:05:29.925Z,5.00
2023-08-15T02:06:01.333Z,5.05
2023-08-15T02:06:32.732Z,3.90
2023-08-15T02:07:04.344Z,5.05
2023-08-15T02:07:35.725Z,5.20
2023-08-15T02:08:07.181Z,5.28
2023-08-15T02:08:38.559Z,4.85
2023-08-15T02:09:10.082Z,5.00
2023-08-15T02:09:41.446Z,5.00
2023-08-15T02:10:12.874Z,4.20
2023-08-15T02:10:44.289Z,3.80
2023-08-15T02:11:15.786Z,4.72
2023-08-15T02:11:47.181Z,4.88
2023-08-15T02:12:18.936Z,4.90
2023-08-15T02:12:50.340Z,4.78
2023-08-15T02:13:21.726Z,4.45
2023-08-15T02:13:53.932Z,4.40
2023-08-15T02:14:25.323Z,4.97
2023-08-15T02:14:56.782Z,4.28
2023-08-15T02:15:28.210Z,4.47
2023-08-15T02:15:59.733Z,4.90
2023-08-15T02:16:31.153Z,4.63
2023-08-15T02:17:02.553Z,4.50
2023-08-15T02:17:34.099Z,4.22
2023-08-15T02:18:05.768Z,4.60
2023-08-15T02:18:38.531Z,5.55
2023-08-15T02:19:11.339Z,4.50
2023-08-15T02:19:42.779Z,4.78
2023-08-15T02:20:14.194Z,4.78
2023-08-15T02:20:45.814Z,5.20
2023-08-15T02:21:17.208Z,5.50
2023-08-15T02:21:48.625Z,4.88
2023-08-15T02:22:20.033Z,4.90
2023-08-15T02:22:51.476Z,5.00
2023-08-15T02:23:23.011Z,4.78
2023-08-15T02:23:54.408Z,4.90
2023-08-15T02:24:25.828Z,5.15
2023-08-15T02:24:57.304Z,4.78
2023-08-15T02:25:28.702Z,5.43
2023-08-15T02:26:00.121Z,5.63
2023-08-15T02:26:31.519Z,4.80
2023-08-15T02:27:02.941Z,5.00
2023-08-15T02:27:34.383Z,3.90
2023-08-15T02:28:06.068Z,5.53
2023-08-15T02:28:37.468Z,4.65
2023-08-15T02:29:08.952Z,4.50
2023-08-15T02:29:40.343Z,4.72
2023-08-15T02:30:12.025Z,5.18
2023-08-15T02:30:43.516Z,5.47
2023-08-15T02:31:14.946Z,4.93
2023-08-15T02:31:47.752Z,4.40
2023-08-15T02:32:19.276Z,4.53
2023-08-15T02:32:50.701Z,5.43
2023-08-15T02:33:22.160Z,5.25
2023-08-15T02:33:53.554Z,5.43
2023-08-15T02:34:25.008Z,4.70
2023-08-15T02:34:56.465Z,4.93
2023-08-15T02:35:27.845Z,4.82
2023-08-15T02:36:04.217Z,4.68
2023-08-15T02:36:35.620Z,5.55
2023-08-15T02:37:07.039Z,5.03
2023-08-15T02:37:38.478Z,5.28
2023-08-15T02:38:10.023Z,5.15
2023-08-15T02:38:41.482Z,5.25
2023-08-15T02:39:12.883Z,5.47
2023-08-15T02:39:44.300Z,4.78
2023-08-15T02:40:15.715Z,4.30
2023-08-15T02:40:47.114Z,5.60
2023-08-15T02:41:18.506Z,4.93
2023-08-15T02:41:49.906Z,5.03
2023-08-15T02:42:21.358Z,4.78
2023-08-15T02:42:52.750Z,5.03
2023-08-15T02:43:24.168Z,4.82
2023-08-15T02:43:55.620Z,4.90
2023-08-15T02:44:27.076Z,4.67
2023-08-15T02:44:58.512Z,4.50
2023-08-15T02:45:29.892Z,5.40
2023-08-15T02:46:01.422Z,4.97
2023-08-15T02:46:32.886Z,5.53
2023-08-15T02:47:04.470Z,4.90
2023-08-15T02:47:35.876Z,4.53
2023-08-15T02:48:07.445Z,5.60
2023-08-15T02:48:38.903Z,4.65
2023-08-15T02:49:10.327Z,5.15
2023-08-15T02:49:41.742Z,5.07
2023-08-15T02:50:13.359Z,4.65
2023-08-15T02:50:44.841Z,5.32
2023-08-15T02:51:16.268Z,4.95
2023-08-15T02:51:47.632Z,4.53
2023-08-15T02:52:19.022Z,4.60
2023-08-15T02:52:50.455Z,4.10
2023-08-15T02:53:21.877Z,5.25
2023-08-15T02:53:53.248Z,5.00
2023-08-15T02:54:24.660Z,4.70
2023-08-15T02:54:56.068Z,4.93
2023-08-15T02:55:27.498Z,5.03
2023-08-15T02:55:58.859Z,4.88
2023-08-15T02:56:30.255Z,5.50
2023-08-15T02:57:01.643Z,5.05
2023-08-15T02:57:33.123Z,4.22
2023-08-15T02:58:04.639Z,4.63
2023-08-15T02:58:36.024Z,5.25
2023-08-15T02:59:07.431Z,5.15
2023-08-15T02:59:38.865Z,5.00
2023-08-15T03:00:10.589Z,4.70
2023-08-15T03:00:42.043Z,5.00
2023-08-15T03:01:13.538Z,4.95
2023-08-15T03:01:45.044Z,5.07
2023-08-15T03:02:16.634Z,4.85
2023-08-15T03:02:48.145Z,4.57
2023-08-15T03:03:19.595Z,4.97
2023-08-15T03:03:51.035Z,5.18
2023-08-15T03:04:22.479Z,4.82
2023-08-15T03:04:53.896Z,4.60
2023-08-15T03:05:25.296Z,4.78
2023-08-15T03:06:03.403Z,5.03
2023-08-15T03:06:34.838Z,4.73
2023-08-15T03:07:06.240Z,4.30
2023-08-15T03:07:37.660Z,4.60
2023-08-15T03:08:09.095Z,4.60
2023-08-15T03:08:40.501Z,5.75
2023-08-15T03:09:11.888Z,4.55
2023-08-15T03:09:43.293Z,5.05
2023-08-15T03:10:14.803Z,4.90
2023-08-15T03:10:46.191Z,5.72
2023-08-15T03:11:17.601Z,5.22
2023-08-15T03:11:49.042Z,4.85
2023-08-15T03:12:20.450Z,4.50
2023-08-15T03:12:51.856Z,5.28
2023-08-15T03:13:23.276Z,4.65
2023-08-15T03:13:54.667Z,4.73
2023-08-15T03:14:28.335Z,4.90
2023-08-15T03:15:00.525Z,5.18
2023-08-15T03:15:31.984Z,5.03
2023-08-15T03:16:03.462Z,4.78
2023-08-15T03:16:34.913Z,4.50
2023-08-15T03:17:06.398Z,5.22
2023-08-15T03:17:37.875Z,4.85
2023-08-15T03:18:09.354Z,4.38
2023-08-15T03:18:40.799Z,5.20
2023-08-15T03:19:12.911Z,5.20
2023-08-15T03:19:44.286Z,4.40
2023-08-15T03:20:15.773Z,5.13
2023-08-15T03:21:03.995Z,5.50
2023-08-15T03:21:35.397Z,5.68
2023-08-15T03:22:09.775Z,4.70
2023-08-15T03:22:42.508Z,4.32
2023-08-15T03:23:13.901Z,5.88
2023-08-15T03:23:45.285Z,5.15
2023-08-15T03:24:16.904Z,4.97
2023-08-15T03:24:48.311Z,5.50
2023-08-15T03:25:19.726Z,4.80
2023-08-15T03:26:03.934Z,5.47
2023-08-15T03:26:35.363Z,4.90
2023-08-15T03:27:06.784Z,4.72
2023-08-15T03:27:38.202Z,5.00
2023-08-15T03:28:09.567Z,5.15
2023-08-15T03:28:41.041Z,4.63
2023-08-15T03:29:12.503Z,4.82
2023-08-15T03:29:44.004Z,5.00
2023-08-15T03:30:15.501Z,4.65
2023-08-15T03:30:46.972Z,4.82
2023-08-15T03:31:18.477Z,5.65
2023-08-15T03:31:49.946Z,5.35
2023-08-15T03:32:21.404Z,5.20
2023-08-15T03:32:52.836Z,4.88
2023-08-15T03:33:24.797Z,5.45
2023-08-15T03:33:56.196Z,5.57
2023-08-15T03:34:27.664Z,4.75
2023-08-15T03:34:59.038Z,4.55
2023-08-15T03:35:30.404Z,5.30
2023-08-15T03:36:01.924Z,6.32
2023-08-15T03:36:33.333Z,6.03
2023-08-15T03:37:04.770Z,6.18
2023-08-15T03:37:36.219Z,5.30
2023-08-15T03:38:07.694Z,5.18
2023-08-15T03:38:39.061Z,5.57
2023-08-15T03:39:10.446Z,5.40
2023-08-15T03:39:41.851Z,5.43
2023-08-15T03:40:13.276Z,5.35
2023-08-15T03:40:45.371Z,6.05
2023-08-15T03:41:16.755Z,5.05
2023-08-15T03:41:48.199Z,4.95
2023-08-15T03:42:19.795Z,5.43
2023-08-15T03:42:51.244Z,5.20
2023-08-15T03:43:22.758Z,4.57
2023-08-15T03:43:54.138Z,5.20
2023-08-15T03:44:25.514Z,5.97
2023-08-15T03:44:56.909Z,5.57
2023-08-15T03:45:29.727Z,6.43
2023-08-15T03:46:01.665Z,5.60
2023-08-15T03:46:33.192Z,5.57
2023-08-15T03:47:04.727Z,5.78
2023-08-15T03:47:36.171Z,5.28
2023-08-15T03:48:08.534Z,5.53
2023-08-15T03:48:39.948Z,5.93
2023-08-15T03:49:11.351Z,5.75
2023-08-15T03:49:42.779Z,5.30
2023-08-15T03:50:14.153Z,5.60
2023-08-15T03:50:45.543Z,5.60
2023-08-15T03:51:32.356Z,5.75
2023-08-15T03:52:08.297Z,6.32
2023-08-15T03:52:39.719Z,6.00
2023-08-15T03:53:11.215Z,5.95
2023-08-15T03:53:42.688Z,5.70
2023-08-15T03:54:16.348Z,5.88
2023-08-15T03:54:47.773Z,5.80
2023-08-15T03:55:19.235Z,4.75
2023-08-15T03:55:50.771Z,4.53
2023-08-15T03:56:22.199Z,6.40
2023-08-15T03:56:53.596Z,5.88
2023-08-15T03:57:25.047Z,5.28
2023-08-15T03:57:56.533Z,5.63
2023-08-15T03:58:28.054Z,7.20
2023-08-15T03:58:59.517Z,5.47
2023-08-15T03:59:30.898Z,5.63
2023-08-15T04:00:02.295Z,5.25
2023-08-15T04:00:33.762Z,5.55
2023-08-15T04:01:07.210Z,6.47
2023-08-15T04:01:38.634Z,6.57
2023-08-15T04:02:10.133Z,5.32
2023-08-15T04:02:41.699Z,6.00
2023-08-15T04:03:13.149Z,5.00
2023-08-15T04:03:46.813Z,4.70
2023-08-15T04:04:18.397Z,5.55
2023-08-15T04:04:49.828Z,5.93
2023-08-15T04:05:21.302Z,4.97
2023-08-15T04:05:52.706Z,5.30
2023-08-15T04:06:24.084Z,5.28
2023-08-15T04:06:55.564Z,5.80
2023-08-15T04:07:29.023Z,5.57
2023-08-15T04:08:00.533Z,5.03
2023-08-15T04:08:31.943Z,4.72
2023-08-15T04:09:03.357Z,4.85
2023-08-15T04:09:34.750Z,5.38
2023-08-15T04:10:06.467Z,5.18
2023-08-15T04:10:38.175Z,5.22
2023-08-15T04:11:09.585Z,5.18
2023-08-15T04:11:40.966Z,5.00
2023-08-15T04:12:12.363Z,4.80
2023-08-15T04:12:46.781Z,4.85
2023-08-15T04:13:18.241Z,5.18
2023-08-15T04:13:49.691Z,5.90
2023-08-15T04:14:21.056Z,5.40
2023-08-15T04:14:52.482Z,5.10
2023-08-15T04:15:23.855Z,4.60
2023-08-15T04:15:55.294Z,5.10
2023-08-15T04:16:26.815Z,4.65
2023-08-15T04:16:58.252Z,4.75
2023-08-15T04:17:29.624Z,5.50
2023-08-15T04:18:01.060Z,5.10
2023-08-15T04:18:32.712Z,5.78
2023-08-15T04:19:04.270Z,5.17
2023-08-15T04:19:35.668Z,4.78
2023-08-15T04:20:07.462Z,4.78
2023-08-15T04:20:39.698Z,4.75
2023-08-15T04:21:11.618Z,5.00
2023-08-15T04:21:43.012Z,5.05
2023-08-15T04:22:14.359Z,5.10
2023-08-15T04:22:45.781Z,4.90
2023-08-15T04:23:17.193Z,5.10
2023-08-15T04:23:48.961Z,5.97
2023-08-15T04:24:20.376Z,5.40
2023-08-15T04:24:51.825Z,4.95
2023-08-15T04:25:23.249Z,4.95
2023-08-15T04:25:54.776Z,5.38
2023-08-15T04:26:26.379Z,5.18
2023-08-15T04:26:57.768Z,5.63
2023-08-15T04:27:29.155Z,6.00
2023-08-15T04:28:00.692Z,4.87
2023-08-15T04:28:32.115Z,4.88
2023-08-15T04:29:03.548Z,6.35
2023-08-15T04:29:34.936Z,4.95
2023-08-15T04:30:06.647Z,5.55
2023-08-15T04:30:38.157Z,5.28
2023-08-15T04:31:09.558Z,5.53
2023-08-15T04:31:40.992Z,5.13
2023-08-15T04:32:12.403Z,4.75
2023-08-15T04:32:43.807Z,5.10
2023-08-15T04:33:15.232Z,4.40
2023-08-15T04:33:46.653Z,4.90
2023-08-15T04:34:18.073Z,4.72
2023-08-15T04:34:50.090Z,5.15
2023-08-15T04:35:21.667Z,5.00
2023-08-15T04:35:53.042Z,5.20
2023-08-15T04:36:24.420Z,5.20
2023-08-15T04:36:56.027Z,5.20
2023-08-15T04:37:27.446Z,5.75
2023-08-15T04:37:58.822Z,5.22
2023-08-15T04:38:30.221Z,5.20
2023-08-15T04:39:01.979Z,5.57
2023-08-15T04:39:33.464Z,5.75
2023-08-15T04:40:05.186Z,6.45
2023-08-15T04:40:37.443Z,5.93
2023-08-15T04:41:08.886Z,5.53
2023-08-15T04:41:40.247Z,4.53
2023-08-15T04:42:11.635Z,5.90
2023-08-15T04:42:43.043Z,4.97
2023-08-15T04:43:14.440Z,5.23
2023-08-15T04:43:45.854Z,5.25
2023-08-15T04:44:17.245Z,5.35
2023-08-15T04:44:48.676Z,5.28
2023-08-15T04:45:20.076Z,5.22
2023-08-15T04:45:51.486Z,4.78
2023-08-15T04:46:22.963Z,5.38
2023-08-15T04:46:54.398Z,5.45
2023-08-15T04:47:25.782Z,6.47
2023-08-15T04:47:57.305Z,6.07
2023-08-15T04:48:28.720Z,5.50
2023-08-15T04:49:01.069Z,5.35
2023-08-15T04:49:32.450Z,5.68
2023-08-15T04:50:03.979Z,4.95
2023-08-15T04:50:35.405Z,4.97
2023-08-15T04:51:06.843Z,5.55
2023-08-15T04:51:38.224Z,5.25
2023-08-15T04:52:09.695Z,5.38
2023-08-15T04:52:41.086Z,6.17
2023-08-15T04:53:12.477Z,5.53
2023-08-15T04:53:43.876Z,4.90
2023-08-15T04:54:15.264Z,4.88
2023-08-15T04:54:46.746Z,5.07
2023-08-15T04:55:18.178Z,5.43
2023-08-15T04:55:49.552Z,5.47
2023-08-15T04:56:21.927Z,5.55
2023-08-15T04:56:53.405Z,5.07
2023-08-15T04:57:24.775Z,5.28
2023-08-15T04:57:56.173Z,5.40
2023-08-15T04:58:27.621Z,4.30
2023-08-15T04:58:59.005Z,5.18
2023-08-15T04:59:30.374Z,5.28
2023-08-15T05:00:01.769Z,5.80
2023-08-15T05:00:35.094Z,6.17
2023-08-15T05:01:06.990Z,7.10
2023-08-15T05:01:38.445Z,5.22
2023-08-15T05:02:09.856Z,5.85
2023-08-15T05:02:41.247Z,5.53
2023-08-15T05:03:12.679Z,5.22
2023-08-15T05:03:44.100Z,4.80
2023-08-15T05:04:15.493Z,4.93
2023-08-15T05:04:46.919Z,5.43
2023-08-15T05:05:18.342Z,5.90
2023-08-15T05:05:49.948Z,5.25
2023-08-15T05:06:21.327Z,5.72
2023-08-15T05:06:52.730Z,5.90
2023-08-15T05:07:24.120Z,6.38
2023-08-15T05:07:55.537Z,4.70
2023-08-15T05:08:26.964Z,5.18
2023-08-15T05:08:58.337Z,5.60
2023-08-15T05:09:29.961Z,7.97
2023-08-15T05:10:01.432Z,7.50
2023-08-15T05:10:33.400Z,5.10
2023-08-15T05:11:04.849Z,4.25
2023-08-15T05:11:36.240Z,4.72
2023-08-15T05:12:07.827Z,5.20
2023-08-15T05:12:39.219Z,4.43
2023-08-15T05:13:10.580Z,4.45
2023-08-15T05:13:42.041Z,4.88
2023-08-15T05:14:13.451Z,5.18
2023-08-15T05:14:44.871Z,5.35
2023-08-15T05:15:16.329Z,3.75
2023-08-15T05:15:47.768Z,4.38
2023-08-15T05:16:19.453Z,4.88
2023-08-15T05:16:50.932Z,4.82
2023-08-15T05:17:22.689Z,4.90
2023-08-15T05:17:54.236Z,4.80
2023-08-15T05:18:25.659Z,4.78
2023-08-15T05:18:57.088Z,4.28
2023-08-15T05:19:28.480Z,4.65
2023-08-15T05:19:59.890Z,5.72
2023-08-15T05:20:31.279Z,5.20
2023-08-15T05:21:02.677Z,4.93
2023-08-15T05:21:34.556Z,4.93
2023-08-15T05:22:06.016Z,4.30
2023-08-15T05:22:38.341Z,4.10
2023-08-15T05:23:09.782Z,4.60
2023-08-15T05:23:41.170Z,3.83
2023-08-15T05:24:12.564Z,4.15
2023-08-15T05:24:43.993Z,4.68
2023-08-15T05:25:15.435Z,5.53
2023-08-15T05:25:47.231Z,4.25
2023-08-15T05:26:18.662Z,4.75
2023-08-15T05:26:50.115Z,4.40
2023-08-15T05:27:21.714Z,5.00
2023-08-15T05:27:53.277Z,4.20
2023-08-15T05:28:24.701Z,3.92
2023-08-15T05:28:56.096Z,4.55
2023-08-15T05:29:27.593Z,5.20
2023-08-15T05:29:59.159Z,4.60
2023-08-15T05:30:30.522Z,4.60
2023-08-15T05:31:01.971Z,4.40
2023-08-15T05:31:33.429Z,3.65
2023-08-15T05:32:04.902Z,4.25
2023-08-15T05:32:36.334Z,4.47
2023-08-15T05:33:07.755Z,4.15
2023-08-15T05:33:39.256Z,4.47
2023-08-15T05:34:11.536Z,4.40
2023-08-15T05:34:43.063Z,6.00
2023-08-15T05:35:14.457Z,3.83
2023-08-15T05:35:45.863Z,5.10
2023-08-15T05:36:17.290Z,3.47
2023-08-15T05:36:48.678Z,3.58
2023-08-15T05:37:22.547Z,4.35
2023-08-15T05:37:54.384Z,4.28
2023-08-15T05:38:25.804Z,4.03
2023-08-15T05:38:57.290Z,3.95
2023-08-15T05:39:28.699Z,4.07
2023-08-15T05:40:01.945Z,4.10
2023-08-15T05:40:35.687Z,3.80
2023-08-15T05:41:07.102Z,3.63
2023-08-15T05:41:38.477Z,4.40
2023-08-15T05:42:09.944Z,4.10
2023-08-15T05:42:41.381Z,4.13
2023-08-15T05:43:12.763Z,4.30
2023-08-15T05:43:44.145Z,3.67
2023-08-15T05:44:15.557Z,4.18
2023-08-15T05:44:47.412Z,4.30
2023-08-15T05:45:18.889Z,4.03
2023-08-15T05:45:50.249Z,3.80
2023-08-15T05:46:21.664Z,4.50
2023-08-15T05:46:53.130Z,4.13
2023-08-15T05:47:24.581Z,4.10
2023-08-15T05:47:56.135Z,3.80
2023-08-15T05:48:29.769Z,4.00
2023-08-15T05:49:01.166Z,3.17
2023-08-15T05:49:34.455Z,4.57
2023-08-15T05:50:06.001Z,4.20
2023-08-15T05:50:37.425Z,3.63
2023-08-15T05:51:08.815Z,3.75
2023-08-15T05:51:40.250Z,3.70
2023-08-15T05:52:11.684Z,3.63
2023-08-15T05:52:43.120Z,3.50
2023-08-15T05:53:14.568Z,3.50
2023-08-15T05:53:46.001Z,3.00
2023-08-15T05:54:17.415Z,3.72
2023-08-15T05:54:48.799Z,4.03
2023-08-15T05:55:20.190Z,3.25
2023-08-15T05:55:51.605Z,3.47
2023-08-15T05:56:23.071Z,2.95
2023-08-15T05:56:54.586Z,3.03
2023-08-15T05:57:25.986Z,3.67
2023-08-15T05:57:57.763Z,4.03
2023-08-15T05:58:29.361Z,4.18
2023-08-15T05:59:00.754Z,3.83
2023-08-15T05:59:32.147Z,3.63
2023-08-15T06:00:03.983Z,3.20
2023-08-15T06:00:35.461Z,3.10
2023-08-15T06:01:06.886Z,3.53
2023-08-15T06:01:38.290Z,3.08
2023-08-15T06:02:09.736Z,3.28
2023-08-15T06:02:41.188Z,3.40
2023-08-15T06:03:12.703Z,3.38
2023-08-15T06:03:52.555Z,3.25
2023-08-15T06:04:24.960Z,3.80
2023-08-15T06:04:56.405Z,3.88
2023-08-15T06:05:30.458Z,3.10
2023-08-15T06:06:01.861Z,3.08
2023-08-15T06:06:33.268Z,3.85
2023-08-15T06:07:04.735Z,3.47
2023-08-15T06:07:36.374Z,3.33
2023-08-15T06:08:07.788Z,3.70
2023-08-15T06:08:39.212Z,3.35
2023-08-15T06:09:10.608Z,3.72
2023-08-15T06:09:42.060Z,3.17
2023-08-15T06:10:13.436Z,3.15
2023-08-15T06:10:44.855Z,3.58
2023-08-15T06:11:16.260Z,3.35
2023-08-15T06:11:47.693Z,3.83
2023-08-15T06:12:19.168Z,3.45
2023-08-15T06:12:50.530Z,3.65
2023-08-15T06:13:22.006Z,3.25
2023-08-15T06:13:53.442Z,2.95
2023-08-15T06:14:24.946Z,3.00
2023-08-15T06:14:56.340Z,3.17
2023-08-15T06:15:27.758Z,3.80
2023-08-15T06:15:59.110Z,3.28
2023-08-15T06:16:30.523Z,3.07
2023-08-15T06:17:01.973Z,3.58
2023-08-15T06:17:33.442Z,3.20
2023-08-15T06:18:05.003Z,3.70
2023-08-15T06:18:36.420Z,3.25
2023-08-15T06:19:07.850Z,3.28
2023-08-15T06:19:39.442Z,3.58
2023-08-15T06:20:11.155Z,4.25
2023-08-15T06:20:42.569Z,3.30
2023-08-15T06:21:14.046Z,4.13
2023-08-15T06:21:45.441Z,3.83
2023-08-15T06:22:16.845Z,3.60
2023-08-15T06:22:48.276Z,3.00
2023-08-15T06:23:19.764Z,3.30
2023-08-15T06:23:51.168Z,3.20
2023-08-15T06:24:22.667Z,3.60
2023-08-15T06:24:54.618Z,3.30
2023-08-15T06:25:26.072Z,3.10
2023-08-15T06:25:57.475Z,3.25
2023-08-15T06:26:28.879Z,2.80
2023-08-15T06:27:00.296Z,3.28
2023-08-15T06:27:31.828Z,3.00
2023-08-15T06:28:03.282Z,4.63
2023-08-15T06:28:34.744Z,3.20
2023-08-15T06:29:06.751Z,3.20
2023-08-15T06:29:38.174Z,3.80
2023-08-15T06:30:09.908Z,3.83
2023-08-15T06:30:41.858Z,3.03
2023-08-15T06:31:13.406Z,2.70
2023-08-15T06:31:44.840Z,3.47
2023-08-15T06:32:29.013Z,3.80
2023-08-15T06:33:00.574Z,2.72
2023-08-15T06:33:32.019Z,3.38
2023-08-15T06:34:03.819Z,3.20
2023-08-15T06:34:36.342Z,3.42
2023-08-15T06:35:07.994Z,3.45
2023-08-15T06:35:39.407Z,3.47
2023-08-15T06:36:10.831Z,3.03
2023-08-15T06:36:44.179Z,3.43
2023-08-15T06:37:15.575Z,3.13
2023-08-15T06:37:46.957Z,3.47
2023-08-15T06:38:18.407Z,3.40
2023-08-15T06:38:49.804Z,3.22
2023-08-15T06:39:21.244Z,2.45
2023-08-15T06:39:52.743Z,3.30
2023-08-15T06:40:24.180Z,3.85
2023-08-15T06:40:55.566Z,3.28
2023-08-15T06:41:26.988Z,3.28
2023-08-15T06:41:58.385Z,3.35
2023-08-15T06:42:29.889Z,2.92
2023-08-15T06:43:01.318Z,2.97
2023-08-15T06:43:32.726Z,3.28
2023-08-15T06:44:04.432Z,3.13
2023-08-15T06:44:35.818Z,3.25
2023-08-15T06:45:10.685Z,3.50
2023-08-15T06:45:42.124Z,3.67
2023-08-15T06:46:13.871Z,2.88
2023-08-15T06:46:45.314Z,2.97
2023-08-15T06:47:16.819Z,3.00
2023-08-15T06:47:48.291Z,2.75
2023-08-15T06:48:19.722Z,3.78
2023-08-15T06:48:51.100Z,2.92
2023-08-15T06:49:22.538Z,3.28
2023-08-15T06:49:53.941Z,3.38
2023-08-15T06:50:25.369Z,2.60
2023-08-15T06:50:56.772Z,2.50
2023-08-15T06:51:28.154Z,3.33
2023-08-15T06:51:59.555Z,3.10
2023-08-15T06:52:30.909Z,3.00
2023-08-15T06:53:02.355Z,3.13
2023-08-15T06:53:34.045Z,2.47
2023-08-15T06:54:05.480Z,2.58
2023-08-15T06:54:36.898Z,2.65
2023-08-15T06:55:08.363Z,3.35
2023-08-15T06:55:39.804Z,2.72
2023-08-15T06:56:11.344Z,2.75
2023-08-15T06:56:42.765Z,2.20
2023-08-15T06:57:14.216Z,2.92
2023-08-15T06:57:45.622Z,3.35
2023-08-15T06:58:17.328Z,2.42
2023-08-15T06:58:48.765Z,2.92
2023-08-15T06:59:20.256Z,2.30
2023-08-15T06:59:51.812Z,2.75
2023-08-15T07:00:23.464Z,3.15
2023-08-15T07:00:55.401Z,2.88
2023-08-15T07:01:26.817Z,3.63
2023-08-15T07:01:58.222Z,2.72
2023-08-15T07:02:30.165Z,2.72
2023-08-15T07:03:01.698Z,2.90
2023-08-15T07:03:33.454Z,2.45
2023-08-15T07:04:05.207Z,2.42
2023-08-15T07:04:36.666Z,2.28
2023-08-15T07:05:08.206Z,3.72